Flag for Australia

Past Weather in 16°55'34.2"S, 145°46'49.9"E, Australia — Yesterday and Last 2 Weeks

Currently: 70 °F. Clear. (Weather station: Cairns Airport, Australia). See more current weather

Past Weather in 16°55'34.2"S, 145°46'49.9"E — Graph

°F

16°55'34.2"S, 145°46'49.9"E Temperature Yesterday

Maximum temperature yesterday: 82 °F (at 10:30 am)
Minimum temperature yesterday: 72 °F (at 5:00 am)
Average temperature yesterday: 77 °F

High & Low Weather Summary for the Past Weeks

 TemperatureHumidityPressure
High84 °F (May 5, 12:00 pm)94% (May 3, 8:35 pm)30.07 "Hg (May 3, 8:35 pm)
Low68 °F (May 13, 2:30 am)51% (May 18, 2:30 pm)29.83 "Hg (May 4, 3:30 pm)
Average76 °F80%29.96 "Hg
* Reported May 3 7:00 pm — May 18 7:30 pm, 16°55'34.2"S, 145°46'49.9"E. Weather by CustomWeather, © 2024

Note: Actual official high and low records may vary slightly from our data, if they occured in-between our weather recording intervals... More about our weather records

16°55'34.2"S, 145°46'49.9"E Weather History for the Previous 24 Hours

Scroll right to see more
 ConditionsComfort  
Time TempWeatherWind HumidityBarometerVisibility
7:30 pm
Sat, May 18
72 °FClear.10 mph65%29.95 "HgN/A
7:00 pm73 °FClear.8 mph61%29.92 "HgN/A
6:30 pm73 °FClear.12 mph61%29.92 "HgN/A
6:00 pm75 °FClear.10 mph54%29.92 "HgN/A
5:00 pm79 °FSunny.18 mph54%29.89 "HgN/A
4:30 pm79 °FSunny.17 mph61%29.89 "HgN/A
4:00 pm81 °FSunny.17 mph58%29.89 "HgN/A
3:30 pm81 °FSunny.17 mph62%29.89 "HgN/A
3:00 pm82 °FSunny.17 mph58%29.89 "HgN/A
2:30 pm82 °FSunny.16 mph51%29.89 "HgN/A
2:00 pm82 °FSunny.20 mph55%29.89 "HgN/A
1:30 pm82 °FSunny.21 mph58%29.89 "HgN/A
1:00 pm82 °FPartly sunny.23 mph58%29.92 "HgN/A
12:32 pm82 °FPartly sunny.20 mph58%29.92 "HgN/A
12:00 pm81 °FBroken clouds.15 mph62%29.95 "HgN/A
11:30 am79 °FScattered clouds.16 mph70%29.95 "HgN/A
11:00 am81 °FScattered clouds.21 mph66%29.95 "HgN/A
10:30 am79 °FScattered clouds.23 mph65%29.98 "HgN/A
10:00 am79 °FBroken clouds.21 mph65%29.98 "HgN/A
9:30 am79 °FBroken clouds.16 mph70%29.98 "HgN/A
9:00 am77 °FMore clouds than sun.14 mph74%29.98 "HgN/A
8:30 am75 °FCloudy.12 mph78%29.98 "HgN/A
8:00 am73 °FScattered clouds.15 mph83%29.98 "HgN/A
7:30 am73 °FBroken clouds.14 mph83%29.95 "HgN/A
7:00 am73 °FScattered clouds.12 mph83%29.95 "HgN/A
6:30 am73 °FPartly cloudy.13 mph83%29.95 "HgN/A
6:00 am73 °FMostly cloudy.10 mph83%29.92 "HgN/A
5:30 am73 °FPassing clouds.10 mph83%29.92 "HgN/A
5:00 am73 °FPassing clouds.10 mph83%29.92 "HgN/A
4:30 am73 °FPassing clouds.12 mph83%29.92 "HgN/A
4:00 am73 °FClear.14 mph83%29.92 "HgN/A
3:30 am73 °FClear.12 mph83%29.92 "HgN/A
3:00 am73 °FClear.13 mph83%29.92 "HgN/A
2:30 am73 °FClear.13 mph83%29.92 "HgN/A
2:00 am73 °FPassing clouds.12 mph83%29.92 "HgN/A
1:30 am73 °FClear.13 mph83%29.95 "HgN/A
1:00 am73 °FPassing clouds.13 mph83%29.95 "HgN/A
12:30 am73 °FClear.13 mph83%29.95 "HgN/A
12:00 am73 °FPartly cloudy.10 mph83%29.95 "HgN/A
11:30 pm
Fri, May 17
73 °FSprinkles. Partly cloudy.10 mph83%29.98 "HgN/A
11:00 pm75 °FMostly cloudy.10 mph78%29.98 "HgN/A
10:30 pm75 °FMostly cloudy.12 mph78%29.98 "HgN/A
10:00 pm75 °FPassing clouds.13 mph78%29.98 "HgN/A
9:00 pm73 °FPassing clouds.10 mph83%29.98 "HgN/A
8:30 pm73 °FPassing clouds.14 mph83%29.98 "HgN/A
8:00 pm75 °FPassing clouds.13 mph78%29.98 "HgN/A
Weather by CustomWeather, © 2024

See weather overview